createdAt,value
2019-04-23T03:02:07.697Z,50.30
2019-04-23T03:07:03.202Z,50.40
2019-04-23T03:09:36.673Z,50.60
2019-04-23T03:12:06.353Z,50.70
2019-04-23T03:14:34.940Z,50.90
2019-04-23T03:30:06.110Z,51.70
2019-04-23T03:40:02.116Z,52.50
2019-04-23T03:42:38.666Z,52.70
2019-04-23T03:45:16.667Z,53.00
2019-04-23T03:47:32.004Z,53.20
2019-04-23T03:55:12.317Z,53.90
2019-04-23T03:57:38.402Z,54.20
2019-04-23T04:00:24.844Z,54.30
2019-04-23T04:02:53.704Z,54.40
2019-04-23T04:05:17.315Z,54.30
2019-04-23T04:08:00.745Z,54.40
2019-04-23T04:12:39.887Z,54.30
2019-04-23T04:15:31.385Z,54.20
2019-04-23T04:17:55.634Z,54.30
2019-04-23T04:20:25.041Z,54.50
2019-04-23T04:25:26.166Z,54.60
2019-04-23T04:30:29.589Z,54.60
2019-04-23T04:33:19.497Z,54.50
2019-04-23T04:35:29.033Z,54.80
2019-04-23T04:43:08.507Z,55.20
2019-04-23T04:47:55.655Z,55.50
2019-04-23T04:50:35.231Z,55.20
2019-04-23T04:55:37.558Z,55.60
2019-04-23T05:00:56.688Z,55.40
2019-04-23T05:03:22.209Z,55.50
2019-04-23T05:08:17.318Z,55.30
2019-04-23T05:13:33.888Z,55.60
2019-04-23T05:15:45.151Z,55.90
2019-04-23T05:18:24.094Z,56.00
2019-04-23T05:20:58.054Z,56.20
2019-04-23T05:23:52.424Z,56.20
2019-04-23T05:26:13.552Z,55.70
2019-04-23T05:28:54.371Z,55.90
2019-04-23T05:31:17.235Z,55.70
2019-04-23T05:33:46.345Z,55.40
2019-04-23T05:38:52.239Z,55.20
2019-04-23T05:43:46.638Z,55.20
2019-04-23T05:48:57.954Z,55.50
2019-04-23T05:53:51.422Z,55.10
2019-04-23T05:56:24.277Z,55.00
2019-04-23T05:58:58.240Z,55.10
2019-04-23T06:04:12.938Z,55.20
2019-04-23T06:06:37.873Z,55.20
2019-04-23T06:08:59.757Z,55.00
2019-04-23T06:14:05.281Z,54.90
2019-04-23T06:16:35.606Z,55.10
2019-04-23T06:19:08.048Z,54.90
2019-04-23T06:21:47.480Z,54.40
2019-04-23T06:24:16.813Z,54.00
2019-04-23T06:26:49.335Z,54.50
2019-04-23T06:29:19.397Z,54.60
2019-04-23T06:31:45.987Z,54.40
2019-04-23T06:34:20.195Z,54.50
2019-04-23T06:36:45.526Z,54.20
2019-04-23T06:39:15.942Z,54.20
2019-04-23T06:41:51.622Z,53.60
2019-04-23T06:49:26.421Z,53.80
2019-04-23T06:52:02.684Z,53.50
2019-04-23T06:54:27.883Z,53.40
2019-04-23T06:57:14.934Z,53.20
2019-04-23T06:59:27.362Z,53.20
2019-04-23T07:02:11.883Z,52.90
2019-04-23T07:07:29.724Z,52.70
2019-04-23T07:09:20.725Z,52.60
2019-04-23T07:12:05.355Z,52.10
2019-04-23T07:14:43.573Z,52.20
2019-04-23T07:17:03.870Z,51.70
2019-04-23T07:19:35.486Z,51.10
2019-04-23T07:22:14.824Z,50.90
2019-04-23T07:24:42.051Z,50.50
2019-04-23T07:27:11.942Z,49.60
2019-04-23T07:29:43.406Z,49.50
2019-04-23T07:32:13.105Z,49.40
2019-04-23T07:34:51.193Z,49.10
2019-04-23T07:37:16.087Z,49.00
2019-04-23T07:40:21.678Z,49.10
2019-04-23T07:42:37.168Z,49.30
2019-04-23T07:45:14.249Z,49.70
2019-04-23T07:48:06.801Z,50.00
2019-04-23T07:53:13.152Z,48.10
2019-04-23T07:56:00.199Z,48.00
2019-04-23T07:58:14.319Z,47.80
2019-04-23T08:03:19.087Z,47.40
2019-04-23T08:05:39.639Z,47.40
2019-04-23T08:08:11.701Z,47.50
2019-04-23T08:11:03.064Z,47.50
2019-04-23T08:13:30.951Z,46.80
2019-04-23T08:16:02.790Z,46.10
2019-04-23T08:18:29.675Z,46.00
2019-04-23T08:20:54.192Z,45.20
2019-04-23T08:23:34.510Z,44.90
2019-04-23T08:26:32.853Z,45.00
2019-04-23T08:29:01.059Z,45.30
2019-04-23T08:31:27.047Z,45.00
2019-04-23T08:34:03.505Z,45.10
2019-04-23T08:38:50.838Z,44.00
2019-04-23T08:41:32.158Z,43.60
2019-04-23T08:44:21.598Z,43.70
2019-04-23T08:46:57.062Z,43.60
2019-04-23T08:49:22.668Z,44.10
2019-04-23T08:54:37.017Z,43.40
2019-04-23T08:56:58.606Z,43.40
2019-04-23T08:59:37.210Z,42.60
2019-04-23T09:02:10.472Z,42.40
2019-04-23T09:04:30.884Z,42.50
2019-04-23T09:07:04.063Z,42.70
2019-04-23T09:09:39.760Z,42.50
2019-04-23T09:11:59.802Z,42.10
2019-04-23T09:14:31.871Z,42.30
2019-04-23T09:17:07.082Z,41.90
2019-04-23T09:19:44.189Z,42.30
2019-04-23T09:22:08.681Z,41.30
2019-04-23T09:24:34.327Z,40.60
2019-04-23T09:27:16.204Z,40.10
2019-04-23T09:29:49.656Z,40.40
2019-04-23T09:37:43.149Z,39.80
2019-04-23T09:40:18.842Z,40.10
2019-04-23T09:43:00.496Z,40.20
2019-04-23T09:45:56.292Z,39.40
2019-04-23T09:55:40.311Z,39.20
2019-04-23T10:03:05.211Z,39.00
2019-04-23T10:05:35.306Z,39.10
2019-04-23T10:08:03.064Z,39.30
2019-04-23T10:10:26.111Z,38.70
2019-04-23T10:12:55.742Z,39.10
2019-04-23T10:15:32.467Z,38.60
2019-04-23T10:17:58.105Z,37.90
2019-04-23T10:20:28.951Z,38.10
2019-04-23T10:23:00.026Z,38.40
2019-04-23T10:25:30.175Z,38.60
2019-04-23T10:28:04.957Z,38.50
2019-04-23T10:30:31.196Z,38.60
2019-04-23T10:33:01.390Z,38.50
2019-04-23T10:35:41.445Z,37.80
2019-04-23T10:38:07.927Z,38.20
2019-04-23T10:40:37.752Z,37.90
2019-04-23T10:43:05.414Z,37.80
2019-04-23T10:45:53.989Z,37.40
2019-04-23T10:49:12.904Z,38.10
2019-04-23T10:51:28.707Z,38.30
2019-04-23T10:54:07.360Z,37.90
2019-04-23T10:56:37.707Z,36.80
2019-04-23T10:59:04.775Z,36.80
2019-04-23T11:01:41.377Z,36.10
2019-04-23T11:04:21.470Z,36.00
2019-04-23T11:09:29.305Z,35.00
2019-04-23T11:11:53.858Z,36.30
2019-04-23T11:14:25.447Z,36.00
2019-04-23T11:19:25.121Z,36.30
2019-04-23T11:32:29.301Z,35.00
2019-04-23T11:34:48.066Z,34.40
2019-04-23T11:39:39.611Z,34.90
2019-04-23T11:42:08.627Z,35.30
2019-04-23T11:44:47.205Z,34.50
2019-04-23T11:54:35.948Z,33.90
2019-04-23T11:59:59.516Z,33.40
2019-04-23T12:02:12.053Z,32.60
2019-04-23T12:04:57.350Z,31.80
2019-04-23T12:07:32.761Z,31.30
2019-04-23T12:12:32.802Z,32.40
2019-04-23T12:15:07.369Z,32.00
2019-04-23T12:17:47.163Z,31.40
2019-04-23T12:20:26.745Z,30.70
2019-04-23T12:23:01.174Z,30.40
2019-04-23T12:30:25.088Z,30.20
2019-04-23T12:37:55.157Z,30.00
2019-04-23T12:40:24.952Z,29.50
2019-04-23T12:50:46.845Z,28.80
2019-04-23T12:53:29.397Z,29.00
2019-04-23T12:55:36.257Z,29.40
2019-04-23T12:58:15.725Z,29.10
2019-04-23T13:00:36.972Z,29.00
2019-04-23T13:03:10.423Z,28.30
2019-04-23T13:05:32.777Z,28.00
2019-04-23T13:11:01.696Z,28.50
2019-04-23T13:13:25.595Z,27.30
2019-04-23T13:15:48.865Z,27.60
2019-04-23T13:18:17.630Z,27.60
2019-04-23T13:20:46.795Z,27.80
2019-04-23T13:23:25.577Z,27.50
2019-04-23T13:26:00.926Z,27.10
2019-04-23T13:31:12.517Z,27.30
2019-04-23T13:41:19.170Z,26.60
2019-04-23T13:43:47.920Z,26.60
2019-04-23T13:48:41.708Z,27.40
2019-04-23T13:51:21.229Z,27.00
2019-04-23T13:54:01.612Z,27.50
2019-04-23T13:56:25.262Z,27.20
2019-04-23T13:58:51.799Z,26.90
2019-04-23T14:01:28.757Z,27.20
2019-04-23T14:04:11.806Z,27.30
2019-04-23T14:09:14.410Z,26.60
2019-04-23T14:14:08.776Z,27.30
2019-04-23T14:21:47.827Z,26.10
2019-04-23T14:29:13.108Z,25.30
2019-04-23T14:31:37.063Z,25.30
2019-04-23T14:34:11.548Z,25.70
2019-04-23T14:39:10.146Z,25.30
2019-04-23T14:42:01.135Z,26.20
2019-04-23T14:49:25.784Z,25.90
2019-04-23T14:52:02.690Z,25.90
2019-04-23T14:55:06.393Z,25.70
2019-04-23T14:57:09.897Z,26.30
2019-04-23T14:59:24.455Z,25.50
2019-04-23T15:02:05.275Z,26.80
2019-04-23T15:04:47.912Z,26.40
2019-04-23T15:07:16.977Z,26.60
2019-04-23T15:12:17.340Z,26.60
2019-04-23T15:17:13.019Z,27.50
2019-04-23T15:22:20.158Z,26.10
2019-04-23T15:25:03.249Z,26.60
2019-04-23T15:29:42.445Z,26.90
2019-04-23T15:34:57.454Z,27.90
2019-04-23T15:40:08.233Z,28.70
2019-04-23T15:42:25.382Z,29.30
2019-04-23T15:44:55.241Z,29.60
2019-04-23T15:47:29.605Z,29.80
2019-04-23T15:50:02.812Z,30.00
2019-04-23T15:52:32.652Z,30.30
2019-04-23T15:57:45.083Z,31.10
2019-04-23T15:59:58.802Z,31.60
2019-04-23T16:02:03.418Z,31.90
2019-04-23T16:04:33.728Z,31.30
2019-04-23T16:07:04.448Z,31.70
2019-04-23T16:10:09.452Z,31.60
2019-04-23T16:12:35.984Z,31.80
2019-04-23T16:17:37.118Z,31.10
2019-04-23T16:20:25.519Z,32.10
2019-04-23T16:22:39.444Z,32.40
2019-04-23T16:25:13.367Z,33.40
2019-04-23T16:27:52.568Z,32.80
2019-04-23T16:33:03.706Z,33.10
2019-04-23T16:35:36.906Z,33.60
2019-04-23T16:38:24.892Z,33.90
2019-04-23T16:40:39.448Z,33.40
2019-04-23T16:43:08.684Z,33.80
2019-04-23T16:48:15.787Z,34.30
2019-04-23T16:50:56.289Z,34.50
2019-04-23T16:53:16.126Z,35.30
2019-04-23T16:58:23.294Z,35.30
2019-04-23T17:01:05.817Z,35.50
2019-04-23T17:03:21.083Z,36.20
2019-04-23T17:05:53.723Z,35.90
2019-04-23T17:10:51.542Z,36.70
2019-04-23T17:13:20.125Z,37.00
2019-04-23T17:18:29.834Z,36.90
2019-04-23T17:23:38.867Z,37.00
2019-04-23T17:31:18.993Z,37.30
2019-04-23T17:33:34.685Z,37.40
2019-04-23T17:41:40.311Z,38.20
2019-04-23T17:44:21.321Z,38.70
2019-04-23T17:46:47.057Z,38.90
2019-04-23T17:49:14.117Z,39.80
2019-04-23T17:51:34.413Z,40.00
2019-04-23T17:54:17.846Z,40.40
2019-04-23T17:59:20.494Z,40.60
2019-04-23T18:01:54.392Z,41.00
2019-04-23T18:04:36.631Z,41.10
2019-04-23T18:06:51.045Z,41.30
2019-04-23T18:09:24.361Z,41.10
2019-04-23T18:11:56.182Z,41.10
2019-04-23T18:14:11.455Z,42.10
2019-04-23T18:19:16.783Z,41.80
2019-04-23T18:22:18.268Z,42.10
2019-04-23T18:25:06.328Z,42.60
2019-04-23T18:27:30.967Z,43.30
2019-04-23T18:32:43.402Z,43.00
2019-04-23T18:35:33.780Z,43.10
2019-04-23T18:37:43.688Z,43.50
2019-04-23T18:40:05.158Z,43.60
2019-04-23T18:42:45.140Z,43.90
2019-04-23T18:45:24.466Z,43.90
2019-04-23T18:48:03.048Z,44.40
2019-04-23T18:50:26.842Z,44.60
2019-04-23T18:52:58.427Z,44.70
2019-04-23T18:55:29.240Z,44.90
2019-04-23T18:57:50.459Z,44.90
2019-04-23T19:00:26.398Z,45.00
2019-04-23T19:03:11.699Z,45.40
2019-04-23T19:05:52.598Z,46.00
2019-04-23T19:08:42.572Z,46.20
2019-04-23T19:10:50.984Z,46.30
2019-04-23T19:15:45.850Z,46.90
2019-04-23T19:18:38.286Z,47.00
2019-04-23T19:31:22.106Z,48.40
2019-04-23T19:34:00.264Z,48.40
2019-04-23T19:36:17.104Z,49.00
2019-04-23T19:38:57.966Z,49.10
2019-04-23T19:41:19.563Z,49.40
2019-04-23T19:43:55.594Z,49.80
2019-04-23T19:46:34.412Z,49.70
2019-04-23T19:48:57.803Z,49.50
2019-04-23T19:51:25.069Z,49.80
2019-04-23T19:58:59.682Z,51.20
2019-04-23T20:01:33.945Z,51.50
2019-04-23T20:03:56.278Z,51.30
2019-04-23T20:07:07.505Z,51.30
2019-04-23T20:09:16.272Z,51.80
2019-04-23T20:11:42.569Z,51.80
2019-04-23T20:14:06.099Z,52.60
2019-04-23T20:16:59.803Z,52.10
2019-04-23T20:19:16.404Z,52.00
2019-04-23T20:26:59.265Z,51.70
2019-04-23T20:29:45.403Z,51.20
2019-04-23T20:32:04.359Z,52.30
2019-04-23T20:36:57.856Z,51.20
2019-04-23T20:39:45.487Z,51.50
2019-04-23T20:44:47.493Z,51.40
2019-04-23T20:47:11.473Z,51.60
2019-04-23T20:49:47.158Z,51.60
2019-04-23T20:52:13.772Z,51.80
2019-04-23T20:54:56.545Z,52.10
2019-04-23T21:05:09.899Z,52.80
2019-04-23T21:12:57.942Z,53.40
2019-04-23T21:15:20.236Z,53.70
2019-04-23T21:22:55.898Z,53.40
2019-04-23T21:25:22.217Z,53.30
2019-04-23T21:28:08.617Z,53.30
2019-04-23T21:33:15.921Z,53.20
2019-04-23T21:39:04.209Z,52.80
2019-04-23T21:41:29.196Z,52.70
2019-04-23T21:44:08.613Z,52.80
2019-04-23T21:46:48.294Z,52.70
2019-04-23T21:51:46.360Z,52.70
2019-04-23T21:53:55.394Z,52.30
2019-04-23T21:59:06.004Z,52.30
2019-04-23T22:04:17.625Z,52.90
2019-04-23T22:06:43.417Z,52.70
2019-04-23T22:09:16.082Z,52.30
2019-04-23T22:14:26.994Z,52.30
2019-04-23T22:16:52.054Z,51.80
2019-04-23T22:19:15.099Z,51.90
2019-04-23T22:24:25.554Z,51.90
2019-04-23T22:29:21.064Z,51.80
2019-04-23T22:31:47.467Z,51.90
2019-04-23T22:34:23.600Z,52.00
2019-04-23T22:36:57.998Z,51.90
2019-04-23T22:44:51.273Z,51.60
2019-04-23T22:49:41.785Z,51.50
2019-04-23T22:52:06.620Z,51.40
2019-04-23T22:54:32.248Z,51.50
2019-04-23T22:56:57.900Z,51.60
2019-04-23T22:59:51.373Z,52.00
2019-04-23T23:02:08.909Z,51.40
2019-04-23T23:04:51.579Z,51.10
2019-04-23T23:07:07.442Z,51.30
2019-04-23T23:12:14.353Z,51.20
2019-04-23T23:17:24.730Z,51.30
2019-04-23T23:20:01.729Z,51.20
2019-04-23T23:22:18.463Z,51.10
2019-04-23T23:24:56.431Z,51.40
2019-04-23T23:27:23.707Z,51.30
2019-04-23T23:30:06.395Z,51.20
2019-04-23T23:32:23.009Z,51.60
2019-04-23T23:35:12.921Z,51.40
2019-04-23T23:37:24.311Z,51.40
2019-04-23T23:40:12.330Z,51.80
2019-04-23T23:42:22.187Z,52.00
2019-04-23T23:45:01.970Z,52.10
2019-04-23T23:47:29.824Z,52.00
2019-04-23T23:50:16.236Z,52.00
2019-04-23T23:52:42.854Z,52.20
2019-04-23T23:55:08.336Z,52.40
2019-04-23T23:57:32.236Z,52.90
